createdAt,value
2023-01-02T00:02:10.030Z,10.88
2023-01-02T00:04:36.467Z,11.45
2023-01-02T00:07:02.943Z,11.27
2023-01-02T00:09:29.341Z,8.43
2023-01-02T00:11:57.028Z,11.43
2023-01-02T00:14:23.427Z,10.27
2023-01-02T00:16:49.832Z,12.57
2023-01-02T00:19:16.184Z,11.32
2023-01-02T00:21:42.569Z,12.05
2023-01-02T00:24:09.061Z,10.13
2023-01-02T00:26:35.482Z,15.18
2023-01-02T00:29:02.263Z,11.30
2023-01-02T00:31:28.893Z,8.35
2023-01-02T00:33:55.569Z,9.70
2023-01-02T00:36:21.991Z,14.60
2023-01-02T00:38:48.363Z,8.98
2023-01-02T00:41:16.866Z,7.75
2023-01-02T00:43:43.493Z,9.98
2023-01-02T00:46:12.242Z,8.35
2023-01-02T00:48:40.177Z,11.30
2023-01-02T00:51:06.788Z,9.77
2023-01-02T00:53:34.803Z,13.10
2023-01-02T00:56:01.207Z,16.55
2023-01-02T00:58:27.892Z,14.73
2023-01-02T01:00:54.317Z,15.13
2023-01-02T01:03:20.754Z,13.43
2023-01-02T01:05:47.165Z,11.10
2023-01-02T01:08:13.661Z,12.00
2023-01-02T01:10:40.121Z,11.45
2023-01-02T01:13:06.873Z,7.75
2023-01-02T01:15:34.593Z,9.77
2023-01-02T01:18:01.354Z,7.80
2023-01-02T01:20:27.788Z,10.40
2023-01-02T01:22:54.213Z,9.02
2023-01-02T01:25:21.055Z,10.48
2023-01-02T01:27:47.516Z,11.23
2023-01-02T01:30:14.039Z,11.15
2023-01-02T01:32:40.522Z,8.52
2023-01-02T01:35:07.556Z,9.80
2023-01-02T01:37:33.941Z,9.43
2023-01-02T01:40:00.331Z,9.32
2023-01-02T01:42:34.470Z,9.88
2023-01-02T01:45:01.762Z,10.93
2023-01-02T01:47:38.794Z,6.18
2023-01-02T01:50:08.156Z,8.48
2023-01-02T01:52:37.993Z,6.57
2023-01-02T01:55:15.408Z,7.43
2023-01-02T01:57:49.743Z,6.97
2023-01-02T02:00:16.462Z,10.02
2023-01-02T02:02:46.701Z,8.50
2023-01-02T02:05:17.042Z,9.15
2023-01-02T02:07:51.731Z,7.43
2023-01-02T02:10:18.282Z,9.75
2023-01-02T02:12:44.710Z,10.30
2023-01-02T02:15:24.817Z,9.25
2023-01-02T02:18:01.681Z,9.68
2023-01-02T02:20:44.514Z,8.98
2023-01-02T02:23:26.023Z,10.20
2023-01-02T02:26:12.879Z,12.63
2023-01-02T02:29:17.943Z,10.98
2023-01-02T02:31:58.459Z,8.82
2023-01-02T02:34:46.053Z,11.48
2023-01-02T02:37:44.885Z,12.00
2023-01-02T02:40:59.576Z,9.15
2023-01-02T02:43:41.295Z,12.20
2023-01-02T02:46:14.885Z,9.48
2023-01-02T02:48:59.199Z,8.30
2023-01-02T02:51:41.674Z,10.77
2023-01-02T02:54:24.594Z,8.40
2023-01-02T02:56:52.943Z,10.10
2023-01-02T02:59:20.386Z,9.98
2023-01-02T03:01:47.162Z,11.45
2023-01-02T03:04:23.028Z,10.82
2023-01-02T03:07:35.626Z,12.35
2023-01-02T03:10:20.869Z,7.18
2023-01-02T03:13:07.947Z,12.57
2023-01-02T03:15:48.196Z,9.32
2023-01-02T03:18:39.343Z,10.50
2023-01-02T03:21:10.298Z,11.13
2023-01-02T03:23:46.227Z,12.18
2023-01-02T03:26:16.791Z,9.27
2023-01-02T03:28:46.988Z,10.73
2023-01-02T03:31:19.159Z,8.10
2023-01-02T03:33:54.301Z,8.15
2023-01-02T03:36:24.840Z,6.40
2023-01-02T03:39:02.345Z,10.68
2023-01-02T03:41:35.067Z,13.85
2023-01-02T03:44:03.522Z,8.70
2023-01-02T03:46:53.791Z,10.88
2023-01-02T03:49:29.266Z,13.30
2023-01-02T03:51:55.779Z,7.75
2023-01-02T03:54:22.513Z,12.45
2023-01-02T03:57:02.469Z,10.48
2023-01-02T04:00:01.274Z,9.25
2023-01-02T04:02:51.598Z,8.10
2023-01-02T04:05:31.867Z,6.65
2023-01-02T04:08:06.846Z,12.52
2023-01-02T04:10:37.078Z,12.45
2023-01-02T04:13:12.722Z,8.73
2023-01-02T04:15:41.790Z,12.07
2023-01-02T04:18:12.380Z,9.90
2023-01-02T04:20:44.277Z,10.85
2023-01-02T04:23:26.514Z,13.07
2023-01-02T04:25:59.486Z,11.27
2023-01-02T04:28:29.148Z,8.98
2023-01-02T04:31:07.833Z,12.05
2023-01-02T04:33:40.223Z,14.90
2023-01-02T04:36:08.761Z,9.90
2023-01-02T04:38:35.262Z,6.97
2023-01-02T04:41:02.766Z,9.02
2023-01-02T04:43:29.206Z,8.82
2023-01-02T04:45:55.848Z,12.80
2023-01-02T04:48:22.406Z,9.15
2023-01-02T04:50:48.935Z,9.52
2023-01-02T04:53:15.657Z,11.82
2023-01-02T04:55:42.330Z,8.32
2023-01-02T04:58:09.230Z,9.82
2023-01-02T05:00:37.238Z,11.32
2023-01-02T05:03:04.686Z,11.30
2023-01-02T05:05:31.910Z,9.82
2023-01-02T05:07:59.195Z,9.63
2023-01-02T05:10:25.614Z,11.13
2023-01-02T05:12:52.006Z,8.88
2023-01-02T05:15:18.836Z,14.60
2023-01-02T05:17:45.253Z,12.25
2023-01-02T05:20:13.107Z,8.07
2023-01-02T05:22:59.787Z,10.48
2023-01-02T05:25:31.859Z,12.98
2023-01-02T05:27:58.316Z,8.95
2023-01-02T05:30:25.242Z,8.20
2023-01-02T05:32:52.896Z,11.00
2023-01-02T05:35:19.519Z,11.43
2023-01-02T05:37:45.917Z,9.52
2023-01-02T05:40:13.008Z,9.60
2023-01-02T05:42:39.425Z,8.60
2023-01-02T05:45:06.400Z,10.75
2023-01-02T05:47:33.573Z,10.27
2023-01-02T05:50:00.055Z,11.60
2023-01-02T05:52:26.472Z,9.48
2023-01-02T05:54:52.928Z,9.63
2023-01-02T05:57:19.357Z,6.85
2023-01-02T05:59:45.770Z,8.35
2023-01-02T06:02:12.229Z,9.65
2023-01-02T06:04:38.846Z,11.07
2023-01-02T06:07:05.289Z,6.35
2023-01-02T06:09:31.722Z,13.80
2023-01-02T06:11:58.213Z,10.68
2023-01-02T06:14:25.010Z,8.60
2023-01-02T06:16:51.390Z,8.77
2023-01-02T06:19:17.823Z,13.32
2023-01-02T06:21:44.196Z,6.60
2023-01-02T06:24:10.690Z,7.78
2023-01-02T06:26:37.302Z,6.55
2023-01-02T06:29:04.514Z,6.70
2023-01-02T06:31:33.282Z,6.07
2023-01-02T06:34:01.412Z,7.32
2023-01-02T06:36:33.637Z,8.43
2023-01-02T06:39:00.320Z,6.55
2023-01-02T06:41:26.880Z,10.10
2023-01-02T06:43:54.029Z,8.80
2023-01-02T06:46:23.393Z,4.88
2023-01-02T06:48:50.220Z,8.00
2023-01-02T06:51:19.482Z,6.72
2023-01-02T06:53:46.065Z,8.90
2023-01-02T06:56:15.717Z,7.65
2023-01-02T06:58:42.159Z,8.95
2023-01-02T07:01:14.534Z,8.63
2023-01-02T07:03:41.265Z,7.72
2023-01-02T07:06:16.130Z,7.95
2023-01-02T07:08:43.235Z,8.90
2023-01-02T07:11:15.968Z,8.68
2023-01-02T07:13:46.108Z,5.68
2023-01-02T07:16:16.659Z,12.02
2023-01-02T07:18:43.389Z,4.57
2023-01-02T07:21:11.815Z,10.10
2023-01-02T07:23:38.742Z,8.00
2023-01-02T07:26:07.075Z,8.32
2023-01-02T07:28:34.913Z,5.72
2023-01-02T07:31:05.541Z,5.15
2023-01-02T07:33:32.985Z,7.68
2023-01-02T07:36:04.688Z,6.43
2023-01-02T07:38:31.921Z,6.55
2023-01-02T07:40:58.445Z,6.65
2023-01-02T07:43:25.790Z,6.53
2023-01-02T07:45:52.396Z,7.32
2023-01-02T07:48:19.168Z,5.35
2023-01-02T07:50:46.146Z,8.32
2023-01-02T07:53:12.881Z,8.20
2023-01-02T07:55:39.322Z,6.63
2023-01-02T07:58:07.005Z,9.38
2023-01-02T08:00:33.505Z,6.03
2023-01-02T08:03:00.963Z,9.65
2023-01-02T08:05:27.468Z,4.07
2023-01-02T08:07:53.897Z,4.05
2023-01-02T08:10:20.416Z,9.15
2023-01-02T08:12:46.798Z,9.07
2023-01-02T08:15:13.312Z,6.03
2023-01-02T08:17:41.205Z,5.03
2023-01-02T08:20:08.780Z,6.05
2023-01-02T08:22:35.287Z,10.15
2023-01-02T08:25:02.285Z,5.47
2023-01-02T08:27:29.393Z,7.28
2023-01-02T08:29:55.780Z,6.22
2023-01-02T08:32:22.207Z,3.95
2023-01-02T08:34:49.050Z,3.10
2023-01-02T08:37:15.474Z,4.63
2023-01-02T08:39:41.863Z,3.28
2023-01-02T08:42:08.987Z,2.33
2023-01-02T08:44:38.232Z,3.55
2023-01-02T08:47:05.604Z,1.30
2023-01-02T08:49:32.099Z,2.95
2023-01-02T08:51:58.526Z,0.65
2023-01-02T08:54:25.115Z,3.67
2023-01-02T08:56:51.593Z,1.83
2023-01-02T08:59:18.072Z,2.22
2023-01-02T09:01:44.999Z,1.23
2023-01-02T09:04:13.124Z,1.65
2023-01-02T09:06:40.939Z,1.60
2023-01-02T09:09:12.043Z,2.30
2023-01-02T09:11:43.898Z,3.08
2023-01-02T09:14:10.487Z,2.20
2023-01-02T09:16:38.149Z,2.50
2023-01-02T09:19:04.780Z,1.55
2023-01-02T09:21:31.209Z,1.95
2023-01-02T09:23:57.717Z,1.90
2023-01-02T09:26:24.304Z,2.72
2023-01-02T09:28:50.714Z,2.58
2023-01-02T09:31:17.959Z,2.75
2023-01-02T09:33:46.062Z,3.25
2023-01-02T09:36:15.211Z,3.50
2023-01-02T09:38:42.567Z,4.18
2023-01-02T09:41:27.687Z,2.83
2023-01-02T09:43:58.361Z,3.30
2023-01-02T09:46:45.785Z,3.30
2023-01-02T09:49:15.520Z,3.85
2023-01-02T09:51:43.757Z,3.40
2023-01-02T09:54:33.519Z,4.57
2023-01-02T09:57:12.907Z,3.90
2023-01-02T09:59:43.414Z,3.30
2023-01-02T10:02:37.231Z,4.07
2023-01-02T10:05:31.215Z,4.10
2023-01-02T10:10:42.471Z,4.47
2023-01-02T10:13:23.816Z,7.60
2023-01-02T10:16:02.425Z,6.53
2023-01-02T10:18:37.254Z,6.45
2023-01-02T10:21:10.914Z,9.30
2023-01-02T10:23:41.938Z,6.72
2023-01-02T10:26:20.502Z,7.22
2023-01-02T10:28:46.798Z,8.05
2023-01-02T10:31:25.770Z,8.55
2023-01-02T10:33:52.095Z,6.50
2023-01-02T10:36:33.084Z,6.30
2023-01-02T10:39:05.948Z,8.27
2023-01-02T10:41:33.947Z,9.50
2023-01-02T10:44:19.588Z,10.48
2023-01-02T10:46:46.123Z,8.23
2023-01-02T10:49:12.564Z,9.75
2023-01-02T10:51:45.386Z,8.35
2023-01-02T10:56:40.618Z,11.10
2023-01-02T10:59:24.510Z,7.93
2023-01-02T11:01:57.078Z,10.30
2023-01-02T11:04:28.633Z,9.48
2023-01-02T11:07:04.327Z,9.75
2023-01-02T11:09:33.469Z,9.70
2023-01-02T11:12:11.983Z,8.80
2023-01-02T11:14:38.924Z,9.45
2023-01-02T11:17:15.626Z,8.50
2023-01-02T11:19:48.590Z,7.20
2023-01-02T11:22:17.935Z,9.00
2023-01-02T11:24:59.832Z,10.23
2023-01-02T11:27:41.496Z,9.20
2023-01-02T11:30:21.232Z,7.47
2023-01-02T11:32:47.704Z,7.07
2023-01-02T11:35:37.000Z,7.80
2023-01-02T11:38:03.736Z,7.93
2023-01-02T11:40:32.017Z,9.63
2023-01-02T11:43:26.267Z,9.82
2023-01-02T11:45:53.107Z,7.55
2023-01-02T11:48:22.520Z,6.80
2023-01-02T11:50:50.347Z,7.68
2023-01-02T11:53:21.270Z,7.38
2023-01-02T11:55:54.063Z,10.90
2023-01-02T11:58:30.158Z,10.82
2023-01-02T12:01:09.267Z,10.30
2023-01-02T12:03:35.956Z,12.43
2023-01-02T12:06:31.939Z,13.13
2023-01-02T12:09:04.342Z,14.00
2023-01-02T12:11:57.165Z,15.50
2023-01-02T12:14:42.497Z,11.55
2023-01-02T12:17:11.718Z,9.77
2023-01-02T12:20:08.926Z,9.68
2023-01-02T12:23:10.777Z,11.63
2023-01-02T12:25:45.310Z,11.13
2023-01-02T12:28:33.733Z,10.75
2023-01-02T12:31:23.208Z,10.82
2023-01-02T12:34:19.232Z,11.57
2023-01-02T12:37:05.448Z,10.48
2023-01-02T12:39:53.039Z,12.88
2023-01-02T12:42:42.767Z,10.52
2023-01-02T12:45:54.516Z,9.95
2023-01-02T12:48:23.653Z,11.50
2023-01-02T12:51:09.571Z,12.27
2023-01-02T12:53:36.305Z,11.80
2023-01-02T12:56:29.632Z,10.43
2023-01-02T12:58:56.368Z,13.07
2023-01-02T13:01:33.187Z,12.15
2023-01-02T13:04:03.033Z,10.77
2023-01-02T13:06:46.863Z,10.23
2023-01-02T13:09:23.134Z,11.82
2023-01-02T13:11:59.650Z,11.57
2023-01-02T13:14:34.237Z,11.27
2023-01-02T13:17:40.614Z,10.55
2023-01-02T13:20:33.240Z,9.57
2023-01-02T13:23:11.726Z,12.00
2023-01-02T13:25:45.531Z,13.45
2023-01-02T13:28:13.379Z,13.60
2023-01-02T13:31:00.967Z,11.63
2023-01-02T13:33:42.769Z,11.30
2023-01-02T13:36:38.366Z,11.52
2023-01-02T13:39:18.198Z,12.70
2023-01-02T13:42:15.075Z,9.75
2023-01-02T13:44:45.753Z,9.80
2023-01-02T13:47:25.594Z,11.77
2023-01-02T13:50:07.995Z,11.50
2023-01-02T13:52:34.636Z,10.23
2023-01-02T13:55:25.099Z,9.57
2023-01-02T13:58:17.554Z,9.80
2023-01-02T14:00:55.068Z,8.77
2023-01-02T14:03:24.744Z,9.35
2023-01-02T14:06:01.423Z,7.32
2023-01-02T14:08:34.189Z,10.82
2023-01-02T14:11:17.015Z,7.60
2023-01-02T14:13:48.208Z,7.40
2023-01-02T14:16:30.292Z,9.90
2023-01-02T14:19:12.026Z,7.75
2023-01-02T14:21:56.136Z,6.47
2023-01-02T14:24:45.935Z,7.13
2023-01-02T14:27:15.165Z,6.95
2023-01-02T14:29:53.483Z,7.22
2023-01-02T14:32:27.513Z,9.40
2023-01-02T14:34:56.718Z,8.75
2023-01-02T14:37:45.711Z,10.25
2023-01-02T14:40:23.292Z,9.60
2023-01-02T14:43:15.303Z,11.25
2023-01-02T14:45:50.085Z,8.82
2023-01-02T14:48:26.925Z,8.02
2023-01-02T14:51:00.952Z,9.15
2023-01-02T14:53:39.569Z,14.60
2023-01-02T14:56:16.342Z,11.95
2023-01-02T14:58:48.265Z,11.68
2023-01-02T15:01:42.529Z,7.50
2023-01-02T15:04:24.999Z,8.55
2023-01-02T15:07:19.008Z,8.18
2023-01-02T15:12:51.906Z,7.78
2023-01-02T15:15:24.071Z,8.52
2023-01-02T15:17:52.038Z,6.55
2023-01-02T15:20:24.351Z,6.47
2023-01-02T15:22:56.652Z,6.75
2023-01-02T15:25:37.853Z,7.45
2023-01-02T15:28:05.776Z,10.45
2023-01-02T15:30:40.887Z,6.80
2023-01-02T15:33:27.487Z,6.45
2023-01-02T15:35:58.637Z,7.55
2023-01-02T15:38:25.100Z,9.07
2023-01-02T15:40:54.355Z,9.20
2023-01-02T15:43:39.112Z,9.65
2023-01-02T15:46:06.010Z,10.70
2023-01-02T15:48:32.933Z,13.55
2023-01-02T15:51:00.078Z,10.80
2023-01-02T15:53:30.846Z,10.43
2023-01-02T15:55:58.429Z,11.15
2023-01-02T15:58:30.562Z,9.82
2023-01-02T16:01:16.071Z,11.82
2023-01-02T16:04:01.887Z,9.23
2023-01-02T16:06:44.574Z,8.70
2023-01-02T16:09:20.151Z,8.27
2023-01-02T16:11:50.198Z,8.05
2023-01-02T16:14:21.973Z,10.45
2023-01-02T16:17:01.820Z,8.80
2023-01-02T16:19:38.712Z,10.45
2023-01-02T16:22:20.347Z,11.60
2023-01-02T16:24:58.260Z,11.40
2023-01-02T16:27:31.967Z,12.27
2023-01-02T16:29:58.713Z,8.05
2023-01-02T16:32:30.749Z,10.88
2023-01-02T16:35:25.877Z,8.73
2023-01-02T16:37:55.131Z,13.25
2023-01-02T16:41:00.597Z,11.02
2023-01-02T16:43:13.614Z,15.57
2023-01-02T16:45:40.313Z,6.13
2023-01-02T16:48:12.140Z,7.13
2023-01-02T16:50:42.291Z,12.55
2023-01-02T16:53:11.038Z,16.05
2023-01-02T16:55:37.509Z,16.88
2023-01-02T16:58:03.956Z,8.05
2023-01-02T17:00:30.328Z,8.23
2023-01-02T17:02:57.069Z,8.20
2023-01-02T17:05:33.081Z,6.65
2023-01-02T17:07:59.963Z,4.75
2023-01-02T17:10:26.680Z,3.70
2023-01-02T17:12:53.387Z,3.13
2023-01-02T17:15:20.214Z,2.95
2023-01-02T17:17:46.739Z,2.92
2023-01-02T17:20:14.299Z,4.25
2023-01-02T17:22:40.894Z,6.82
2023-01-02T17:25:09.218Z,3.63
2023-01-02T17:27:35.790Z,2.80
2023-01-02T17:30:04.604Z,1.58
2023-01-02T17:32:31.410Z,4.35
2023-01-02T17:34:58.026Z,3.35
2023-01-02T17:37:25.216Z,2.25
2023-01-02T17:39:52.869Z,3.78
2023-01-02T17:42:20.144Z,3.45
2023-01-02T17:44:46.742Z,2.10
2023-01-02T17:50:00.773Z,3.45
2023-01-02T17:52:27.953Z,3.70
2023-01-02T17:54:56.694Z,3.17
2023-01-02T17:57:24.109Z,5.85
2023-01-02T17:59:51.313Z,7.68
2023-01-02T18:02:20.213Z,7.68
2023-01-02T18:04:52.760Z,6.45
2023-01-02T18:07:21.272Z,12.93
2023-01-02T18:10:07.988Z,7.03
2023-01-02T18:12:36.105Z,6.03
2023-01-02T18:15:10.173Z,4.05
2023-01-02T18:17:36.586Z,5.07
2023-01-02T18:20:10.062Z,3.97
2023-01-02T18:25:19.744Z,3.33
2023-01-02T18:27:47.476Z,4.40
2023-01-02T18:30:21.968Z,5.60
2023-01-02T18:32:49.782Z,4.03
2023-01-02T18:38:24.004Z,4.80
2023-01-02T18:40:50.503Z,5.72
2023-01-02T18:43:35.402Z,5.20
2023-01-02T18:46:13.767Z,5.15
2023-01-02T18:48:40.261Z,5.57
2023-01-02T18:51:13.708Z,6.07
2023-01-02T18:56:23.665Z,6.78
2023-01-02T18:59:13.409Z,6.63
2023-01-02T19:01:47.043Z,10.57
2023-01-02T19:04:27.281Z,5.70
2023-01-02T19:06:57.744Z,8.35
2023-01-02T19:09:34.497Z,5.25
2023-01-02T19:12:32.061Z,6.38
2023-01-02T19:15:01.963Z,9.05
2023-01-02T19:17:32.046Z,5.97
2023-01-02T19:19:59.928Z,8.45
2023-01-02T19:22:34.481Z,9.68
2023-01-02T19:25:18.142Z,8.55
2023-01-02T19:30:29.359Z,9.25
2023-01-02T19:32:55.959Z,8.13
2023-01-02T19:35:25.645Z,7.00
2023-01-02T19:37:52.355Z,11.15
2023-01-02T19:40:22.449Z,9.38
2023-01-02T19:42:54.053Z,7.90
2023-01-02T19:45:26.169Z,9.85
2023-01-02T19:47:53.606Z,10.73
2023-01-02T19:50:25.723Z,9.48
2023-01-02T19:52:52.649Z,9.68
2023-01-02T19:55:19.383Z,10.43
2023-01-02T19:57:46.852Z,7.75
2023-01-02T20:00:15.576Z,9.57
2023-01-02T20:02:45.241Z,9.27
2023-01-02T20:05:16.261Z,7.32
2023-01-02T20:07:48.467Z,9.25
2023-01-02T20:10:15.438Z,8.10
2023-01-02T20:12:42.060Z,8.25
2023-01-02T20:15:35.017Z,8.35
2023-01-02T20:18:08.326Z,8.18
2023-01-02T20:20:35.451Z,8.30
2023-01-02T20:23:01.871Z,10.25
2023-01-02T20:25:28.761Z,10.23
2023-01-02T20:27:56.335Z,12.50
2023-01-02T20:30:25.383Z,11.15
2023-01-02T20:32:53.284Z,10.13
2023-01-02T20:35:19.744Z,11.45
2023-01-02T20:37:46.604Z,10.73
2023-01-02T20:40:13.184Z,13.13
2023-01-02T20:42:39.637Z,10.75
2023-01-02T20:45:06.981Z,12.80
2023-01-02T20:47:35.308Z,9.15
2023-01-02T20:50:04.492Z,13.23
2023-01-02T20:52:30.870Z,22.73
2023-01-02T20:54:57.391Z,13.70
2023-01-02T20:57:23.972Z,13.10
2023-01-02T20:59:50.458Z,12.38
2023-01-02T21:02:16.936Z,10.35
2023-01-02T21:04:43.961Z,18.30
2023-01-02T21:07:10.330Z,22.67
2023-01-02T21:09:36.822Z,22.30
2023-01-02T21:12:03.469Z,30.70
2023-01-02T21:14:35.479Z,24.67
2023-01-02T21:17:03.710Z,21.35
2023-01-02T21:19:30.070Z,37.70
2023-01-02T21:21:56.459Z,24.73
2023-01-02T21:24:22.853Z,39.35
2023-01-02T21:26:49.306Z,25.63
2023-01-02T21:29:15.714Z,16.20
2023-01-02T21:31:42.277Z,12.63
2023-01-02T21:34:08.851Z,13.50
2023-01-02T21:36:36.967Z,13.07
2023-01-02T21:39:03.518Z,15.57
2023-01-02T21:41:48.575Z,13.75
2023-01-02T21:44:14.984Z,15.63
2023-01-02T21:46:41.540Z,20.73
2023-01-02T21:49:08.084Z,28.98
2023-01-02T21:51:35.817Z,19.40
2023-01-02T21:54:02.192Z,16.50
2023-01-02T21:56:28.627Z,17.38
2023-01-02T21:58:57.658Z,15.18
2023-01-02T22:01:24.431Z,16.60
2023-01-02T22:03:50.916Z,15.10
2023-01-02T22:06:18.110Z,12.95
2023-01-02T22:08:44.519Z,14.20
2023-01-02T22:11:29.348Z,15.85
2023-01-02T22:13:55.957Z,14.82
2023-01-02T22:16:22.690Z,13.63
2023-01-02T22:18:50.498Z,16.38
2023-01-02T22:21:16.964Z,17.40
2023-01-02T22:23:43.380Z,17.20
2023-01-02T22:26:09.794Z,16.77
2023-01-02T22:28:37.100Z,15.00
2023-01-02T22:31:03.652Z,15.02
2023-01-02T22:33:30.033Z,17.33
2023-01-02T22:35:56.451Z,15.88
2023-01-02T22:38:23.839Z,16.10
2023-01-02T22:40:50.381Z,18.98
2023-01-02T22:43:24.404Z,15.40
2023-01-02T22:45:53.327Z,17.40
2023-01-02T22:48:26.274Z,18.25
2023-01-02T22:50:56.480Z,17.98
2023-01-02T22:53:34.684Z,17.65
2023-01-02T22:56:06.225Z,21.45
2023-01-02T22:58:32.607Z,18.92
2023-01-02T23:01:04.544Z,19.42
2023-01-02T23:03:40.922Z,19.15
2023-01-02T23:06:07.548Z,21.10
2023-01-02T23:08:33.979Z,19.52
2023-01-02T23:11:00.679Z,17.90
2023-01-02T23:13:27.445Z,20.00
2023-01-02T23:16:12.548Z,18.08
2023-01-02T23:18:58.091Z,18.20
2023-01-02T23:21:26.562Z,17.05
2023-01-02T23:23:53.911Z,15.70
2023-01-02T23:26:21.921Z,14.25
2023-01-02T23:31:37.577Z,15.25
2023-01-02T23:34:04.200Z,12.80
2023-01-02T23:36:31.818Z,17.15
2023-01-02T23:38:58.169Z,16.25
2023-01-02T23:41:24.570Z,14.82
2023-01-02T23:43:51.547Z,17.50
2023-01-02T23:46:18.199Z,12.68
2023-01-02T23:48:44.701Z,15.98
2023-01-02T23:51:11.089Z,14.38
2023-01-02T23:53:37.490Z,11.18
2023-01-02T23:56:16.888Z,10.77
2023-01-02T23:58:43.710Z,13.27
